This is the latest recevied weather packets stored in our database for station/object SQ5RTW-1. If no packets are shown the sender has not sent any weather packets the latest 10 day(s).
| Time | Temp. | Humidity | Pressure | Rain* | Wind** | Luminosity | Snow |
|---|---|---|---|---|---|---|---|
| 1777475510 | 11.11° C | 38% | 1031 hPa | - | - | - | - |
| 1777474609 | 12.22° C | 35% | 1031 hPa | - | - | - | - |
| 1777469204 | 14.44° C | 31% | 1031.1 hPa | - | - | - | - |
| 1777468302 | 13.89° C | 35% | 1031 hPa | - | - | - | - |
| 1777467390 | 10.56° C | 37% | 1031.1 hPa | - | - | - | - |
| 1777462800 | 11.67° C | 37% | 1031.1 hPa | - | - | - | - |
| 1777461899 | 11.11° C | 40% | 1031.1 hPa | - | - | - | - |
| 1777460998 | 11.11° C | 42% | 1030.9 hPa | - | - | - | - |
| 1777460233 | 11.67° C | 40% | 1031.1 hPa | - | - | - | - |
| 1777460217 | 12.22° C | 41% | 1031 hPa | - | - | - | - |
| 1777460192 | 10° C | 40% | 1031.1 hPa | - | - | - | - |
| 1777458390 | 8.89° C | 44% | 1031 hPa | - | - | - | - |
| 1777457489 | 8.33° C | 45% | 1031.1 hPa | - | - | - | - |
| 1777456588 | 8.89° C | 46% | 1031.1 hPa | - | - | - | - |
| 1777456570 | 7.78° C | 46% | 1031.2 hPa | - | - | - | - |
| 1777455669 | 7.78° C | 48% | 1031.2 hPa | - | - | - | - |
| 1777454768 | 8.33° C | 48% | 1031.1 hPa | - | - | - | - |
| 1777453867 | 7.22° C | 50% | 1031 hPa | - | - | - | - |
| 1777452966 | 8.89° C | 49% | 1031 hPa | - | - | - | - |
| 1777452921 | 8.89° C | 49% | 1031 hPa | - | - | - | - |
| 1777452904 | 10° C | 49% | 1030.9 hPa | - | - | - | - |
| 1777452020 | 8.89° C | 49% | 1030.8 hPa | - | - | - | - |
| 1777452004 | 10° C | 49% | 1030.9 hPa | - | - | - | - |
| 1777451120 | 11.11° C | 44% | 1030.5 hPa | - | - | - | - |
| 1777451104 | 12.22° C | 44% | 1030.6 hPa | - | - | - | - |
* Rain since midnight (hover to see other rain measurements)
** Current wind speed in m/s (hover to see current wind gust speed)